createdAt,value
2022-11-27T00:01:19.811Z,52.42
2022-11-27T00:03:46.661Z,55.10
2022-11-27T00:06:16.038Z,55.47
2022-11-27T00:08:43.690Z,52.88
2022-11-27T00:11:15.611Z,54.47
2022-11-27T00:13:42.146Z,65.88
2022-11-27T00:16:09.444Z,58.53
2022-11-27T00:18:36.495Z,74.97
2022-11-27T00:21:13.040Z,58.20
2022-11-27T00:23:39.952Z,61.85
2022-11-27T00:26:07.266Z,54.53
2022-11-27T00:28:35.601Z,45.00
2022-11-27T00:31:05.041Z,45.08
2022-11-27T00:33:31.497Z,41.20
2022-11-27T00:36:02.463Z,41.75
2022-11-27T00:38:28.900Z,39.85
2022-11-27T00:40:59.469Z,43.97
2022-11-27T00:43:26.003Z,47.65
2022-11-27T00:45:52.419Z,45.50
2022-11-27T00:48:18.865Z,39.70
2022-11-27T00:50:45.302Z,49.00
2022-11-27T00:53:11.979Z,43.17
2022-11-27T00:55:38.458Z,47.40
2022-11-27T00:58:04.880Z,44.75
2022-11-27T01:00:31.439Z,51.67
2022-11-27T01:02:57.897Z,43.85
2022-11-27T01:05:24.351Z,44.65
2022-11-27T01:07:51.018Z,43.53
2022-11-27T01:10:17.518Z,43.85
2022-11-27T01:12:43.936Z,44.15
2022-11-27T01:15:10.932Z,43.95
2022-11-27T01:17:37.438Z,44.60
2022-11-27T01:20:04.178Z,38.92
2022-11-27T01:22:30.626Z,48.90
2022-11-27T01:24:57.077Z,42.17
2022-11-27T01:27:23.538Z,46.83
2022-11-27T01:29:49.978Z,42.05
2022-11-27T01:32:16.432Z,42.10
2022-11-27T01:34:42.854Z,44.28
2022-11-27T01:37:09.295Z,45.38
2022-11-27T01:39:35.770Z,41.92
2022-11-27T01:42:02.233Z,40.65
2022-11-27T01:44:28.657Z,42.53
2022-11-27T01:46:58.304Z,38.42
2022-11-27T01:49:31.391Z,36.92
2022-11-27T01:52:19.625Z,42.65
2022-11-27T01:55:00.075Z,38.88
2022-11-27T01:57:38.682Z,39.28
2022-11-27T02:00:06.812Z,40.72
2022-11-27T02:02:33.316Z,38.85
2022-11-27T02:04:59.768Z,35.47
2022-11-27T02:07:26.478Z,41.92
2022-11-27T02:09:53.042Z,44.03
2022-11-27T02:12:47.058Z,37.22
2022-11-27T02:15:19.345Z,36.53
2022-11-27T02:18:10.799Z,36.90
2022-11-27T02:20:46.254Z,38.72
2022-11-27T02:23:43.671Z,34.15
2022-11-27T02:26:18.506Z,35.40
2022-11-27T02:28:59.944Z,34.20
2022-11-27T02:31:39.234Z,30.73
2022-11-27T02:34:37.097Z,36.50
2022-11-27T02:37:15.129Z,46.75
2022-11-27T02:39:55.440Z,37.08
2022-11-27T02:42:22.373Z,32.88
2022-11-27T02:45:05.215Z,37.50
2022-11-27T02:47:32.520Z,31.88
2022-11-27T02:50:00.457Z,31.70
2022-11-27T02:52:28.475Z,37.85
2022-11-27T02:55:00.537Z,36.45
2022-11-27T02:57:28.320Z,33.83
2022-11-27T02:59:57.170Z,35.53
2022-11-27T03:02:30.277Z,38.22
2022-11-27T03:05:00.832Z,33.53
2022-11-27T03:07:40.785Z,32.05
2022-11-27T03:10:26.848Z,34.20
2022-11-27T03:12:53.338Z,34.10
2022-11-27T03:15:22.063Z,37.10
2022-11-27T03:18:14.404Z,31.42
2022-11-27T03:20:44.691Z,33.88
2022-11-27T03:23:11.176Z,36.05
2022-11-27T03:25:37.703Z,31.48
2022-11-27T03:28:08.401Z,34.20
2022-11-27T03:30:34.864Z,34.03
2022-11-27T03:33:02.103Z,34.53
2022-11-27T03:35:28.739Z,32.88
2022-11-27T03:37:56.299Z,34.75
2022-11-27T03:40:32.339Z,40.40
2022-11-27T03:43:05.952Z,32.80
2022-11-27T03:45:38.067Z,35.08
2022-11-27T03:48:40.129Z,30.35
2022-11-27T03:51:28.521Z,38.20
2022-11-27T03:54:11.338Z,29.83
2022-11-27T03:56:41.864Z,29.33
2022-11-27T03:59:23.124Z,30.60
2022-11-27T04:01:49.820Z,31.00
2022-11-27T04:04:16.367Z,30.55
2022-11-27T04:06:42.947Z,31.08
2022-11-27T04:09:09.403Z,36.17
2022-11-27T04:11:36.052Z,30.80
2022-11-27T04:14:02.893Z,35.92
2022-11-27T04:16:29.515Z,31.08
2022-11-27T04:18:56.045Z,29.92
2022-11-27T04:21:22.529Z,31.50
2022-11-27T04:23:48.915Z,25.48
2022-11-27T04:26:15.472Z,31.83
2022-11-27T04:28:41.895Z,27.67
2022-11-27T04:31:08.438Z,27.42
2022-11-27T04:33:34.903Z,28.00
2022-11-27T04:36:01.357Z,27.17
2022-11-27T04:38:27.815Z,24.27
2022-11-27T04:40:54.462Z,28.23
2022-11-27T04:43:20.920Z,27.50
2022-11-27T04:45:47.384Z,29.00
2022-11-27T04:48:13.913Z,25.33
2022-11-27T04:50:40.454Z,29.80
2022-11-27T04:53:06.948Z,33.70
2022-11-27T04:55:34.570Z,27.17
2022-11-27T04:58:01.111Z,27.15
2022-11-27T05:00:27.629Z,24.05
2022-11-27T05:02:54.214Z,28.45
2022-11-27T05:05:21.875Z,25.25
2022-11-27T05:07:48.337Z,29.23
2022-11-27T05:10:14.818Z,25.08
2022-11-27T05:12:41.281Z,23.73
2022-11-27T05:15:08.640Z,26.13
2022-11-27T05:17:35.075Z,23.52
2022-11-27T05:20:01.528Z,25.75
2022-11-27T05:22:28.006Z,25.10
2022-11-27T05:24:54.470Z,30.05
2022-11-27T05:27:20.934Z,23.00
2022-11-27T05:29:47.374Z,29.40
2022-11-27T05:32:13.960Z,22.67
2022-11-27T05:34:40.653Z,29.10
2022-11-27T05:37:07.367Z,25.42
2022-11-27T05:39:33.804Z,26.50
2022-11-27T05:42:00.274Z,24.42
2022-11-27T05:44:26.984Z,34.75
2022-11-27T05:46:53.500Z,60.30
2022-11-27T05:49:19.978Z,52.95
2022-11-27T05:51:51.013Z,87.20
2022-11-27T05:54:18.176Z,29.88
2022-11-27T05:56:44.613Z,62.33
2022-11-27T05:59:11.602Z,28.63
2022-11-27T06:01:38.109Z,35.40
2022-11-27T06:04:04.792Z,33.72
2022-11-27T06:06:31.419Z,37.75
2022-11-27T06:08:57.864Z,43.00
2022-11-27T06:11:24.538Z,29.42
2022-11-27T06:13:51.551Z,33.63
2022-11-27T06:16:23.903Z,28.98
2022-11-27T06:18:55.924Z,32.33
2022-11-27T06:21:24.135Z,27.13
2022-11-27T06:23:55.396Z,24.77
2022-11-27T06:26:25.141Z,24.98
2022-11-27T06:28:52.248Z,24.15
2022-11-27T06:31:22.147Z,25.77
2022-11-27T06:33:50.083Z,23.85
2022-11-27T06:36:17.452Z,24.45
2022-11-27T06:38:44.708Z,27.40
2022-11-27T06:41:13.666Z,21.73
2022-11-27T06:43:40.204Z,22.05
2022-11-27T06:46:08.524Z,24.35
2022-11-27T06:48:35.269Z,23.08
2022-11-27T06:51:06.528Z,24.65
2022-11-27T06:53:35.497Z,24.27
2022-11-27T06:56:07.248Z,24.15
2022-11-27T06:58:33.693Z,21.15
2022-11-27T07:01:02.146Z,44.15
2022-11-27T07:03:28.670Z,91.40
2022-11-27T07:05:55.117Z,81.50
2022-11-27T07:08:22.348Z,30.98
2022-11-27T07:10:48.947Z,37.78
2022-11-27T07:13:15.513Z,23.92
2022-11-27T07:15:42.337Z,30.63
2022-11-27T07:18:08.865Z,26.35
2022-11-27T07:20:35.285Z,47.05
2022-11-27T07:23:01.756Z,53.70
2022-11-27T07:25:28.234Z,44.35
2022-11-27T07:27:55.669Z,44.00
2022-11-27T07:30:22.214Z,30.17
2022-11-27T07:32:48.700Z,38.80
2022-11-27T07:35:15.225Z,32.45
2022-11-27T07:37:41.705Z,27.52
2022-11-27T07:40:08.539Z,23.33
2022-11-27T07:42:39.034Z,29.98
2022-11-27T07:45:08.419Z,21.63
2022-11-27T07:47:34.881Z,24.08
2022-11-27T07:50:01.567Z,23.13
2022-11-27T07:52:28.134Z,23.00
2022-11-27T07:54:54.663Z,23.17
2022-11-27T07:57:21.348Z,25.08
2022-11-27T07:59:48.052Z,22.67
2022-11-27T08:02:14.854Z,23.15
2022-11-27T08:04:41.718Z,21.80
2022-11-27T08:07:08.498Z,19.95
2022-11-27T08:09:35.000Z,22.13
2022-11-27T08:12:01.443Z,20.52
2022-11-27T08:14:27.893Z,22.38
2022-11-27T08:16:54.509Z,23.55
2022-11-27T08:19:21.188Z,22.23
2022-11-27T08:21:47.958Z,20.85
2022-11-27T08:24:14.550Z,26.23
2022-11-27T08:26:41.015Z,24.05
2022-11-27T08:29:07.735Z,24.10
2022-11-27T08:31:34.492Z,26.75
2022-11-27T08:34:00.997Z,26.90
2022-11-27T08:36:28.323Z,33.35
2022-11-27T08:38:55.569Z,25.92
2022-11-27T08:41:22.267Z,26.08
2022-11-27T08:43:48.755Z,28.00
2022-11-27T08:46:15.505Z,26.30
2022-11-27T08:48:42.112Z,53.53
2022-11-27T08:51:13.513Z,62.60
2022-11-27T08:53:40.657Z,79.80
2022-11-27T08:56:07.340Z,47.03
2022-11-27T08:58:33.825Z,44.80
2022-11-27T09:01:16.620Z,40.22
2022-11-27T09:03:43.546Z,59.92
2022-11-27T09:06:13.099Z,62.25
2022-11-27T09:08:40.798Z,47.20
2022-11-27T09:11:08.355Z,42.20
2022-11-27T09:13:36.969Z,41.75
2022-11-27T09:16:09.648Z,46.85
2022-11-27T09:18:36.240Z,42.30
2022-11-27T09:21:09.281Z,36.00
2022-11-27T09:23:37.476Z,31.65
2022-11-27T09:26:06.926Z,34.50
2022-11-27T09:28:34.085Z,35.05
2022-11-27T09:31:03.064Z,72.80
2022-11-27T09:33:31.501Z,62.25
2022-11-27T09:35:58.169Z,47.42
2022-11-27T09:38:24.871Z,31.15
2022-11-27T09:41:01.805Z,33.38
2022-11-27T09:43:34.515Z,53.40
2022-11-27T09:46:09.149Z,33.83
2022-11-27T09:48:41.510Z,30.35
2022-11-27T09:51:29.168Z,31.58
2022-11-27T09:54:05.721Z,29.95
2022-11-27T09:56:35.296Z,32.25
2022-11-27T09:59:02.458Z,26.73
2022-11-27T10:01:40.412Z,25.95
2022-11-27T10:04:14.328Z,24.25
2022-11-27T10:07:20.768Z,30.77
2022-11-27T10:09:53.160Z,28.52
2022-11-27T10:12:38.340Z,27.67
2022-11-27T10:15:13.755Z,28.13
2022-11-27T10:18:02.974Z,28.38
2022-11-27T10:20:44.596Z,26.85
2022-11-27T10:26:01.275Z,23.90
2022-11-27T10:28:33.558Z,27.42
2022-11-27T10:31:04.304Z,27.35
2022-11-27T10:33:41.216Z,26.50
2022-11-27T10:36:15.585Z,26.42
2022-11-27T10:38:43.667Z,26.60
2022-11-27T10:44:25.742Z,22.73
2022-11-27T10:46:57.276Z,25.57
2022-11-27T10:51:50.088Z,21.65
2022-11-27T10:54:44.154Z,26.10
2022-11-27T10:57:39.059Z,73.90
2022-11-27T11:00:09.010Z,32.75
2022-11-27T11:02:38.710Z,34.95
2022-11-27T11:05:37.659Z,32.15
2022-11-27T11:08:19.312Z,29.52
2022-11-27T11:11:00.457Z,22.88
2022-11-27T11:13:29.276Z,16.35
2022-11-27T11:15:57.575Z,19.73
2022-11-27T11:18:35.628Z,18.05
2022-11-27T11:21:07.044Z,16.35
2022-11-27T11:26:05.397Z,16.40
2022-11-27T11:28:39.506Z,15.77
2022-11-27T11:31:09.664Z,13.55
2022-11-27T11:33:46.903Z,16.27
2022-11-27T11:36:13.759Z,18.55
2022-11-27T11:38:44.799Z,17.45
2022-11-27T11:41:12.773Z,16.25
2022-11-27T11:43:39.785Z,17.40
2022-11-27T11:46:22.941Z,15.40
2022-11-27T11:48:53.841Z,21.15
2022-11-27T11:51:39.484Z,27.17
2022-11-27T11:54:18.596Z,16.05
2022-11-27T11:56:52.308Z,19.25
2022-11-27T11:59:50.400Z,16.05
2022-11-27T12:02:40.769Z,12.20
2022-11-27T12:05:36.912Z,11.88
2022-11-27T12:08:41.735Z,14.95
2022-11-27T12:11:15.993Z,11.75
2022-11-27T12:14:41.352Z,14.23
2022-11-27T12:17:20.074Z,13.25
2022-11-27T12:20:10.681Z,10.40
2022-11-27T12:22:37.645Z,12.38
2022-11-27T12:25:37.808Z,13.57
2022-11-27T12:28:41.559Z,11.73
2022-11-27T12:31:24.028Z,13.20
2022-11-27T12:34:20.659Z,11.35
2022-11-27T12:36:54.733Z,11.07
2022-11-27T12:39:28.473Z,12.93
2022-11-27T12:41:57.669Z,12.30
2022-11-27T12:44:51.761Z,12.95
2022-11-27T12:47:28.953Z,10.73
2022-11-27T12:50:01.880Z,10.90
2022-11-27T12:52:33.728Z,10.68
2022-11-27T12:55:20.947Z,8.75
2022-11-27T12:58:07.056Z,10.60
2022-11-27T13:00:41.039Z,9.02
2022-11-27T13:03:25.900Z,10.90
2022-11-27T13:05:55.302Z,8.50
2022-11-27T13:08:33.597Z,7.90
2022-11-27T13:11:07.610Z,8.82
2022-11-27T13:13:59.256Z,8.65
2022-11-27T13:16:45.672Z,10.52
2022-11-27T13:19:14.954Z,10.73
2022-11-27T13:21:42.977Z,9.93
2022-11-27T13:24:13.133Z,9.85
2022-11-27T13:26:48.951Z,9.23
2022-11-27T13:29:25.155Z,9.57
2022-11-27T13:31:56.877Z,12.55
2022-11-27T13:34:29.172Z,10.43
2022-11-27T13:37:02.790Z,13.85
2022-11-27T13:39:34.056Z,11.85
2022-11-27T13:42:12.756Z,9.43
2022-11-27T13:44:45.210Z,10.93
2022-11-27T13:47:18.449Z,10.13
2022-11-27T13:49:46.353Z,8.30
2022-11-27T13:52:17.904Z,8.35
2022-11-27T13:55:07.614Z,10.48
2022-11-27T13:57:34.422Z,11.25
2022-11-27T14:00:07.232Z,23.95
2022-11-27T14:02:46.021Z,15.93
2022-11-27T14:05:14.958Z,14.50
2022-11-27T14:07:48.273Z,21.67
2022-11-27T14:10:26.701Z,18.63
2022-11-27T14:13:06.264Z,11.65
2022-11-27T14:15:35.944Z,14.80
2022-11-27T14:18:18.402Z,10.80
2022-11-27T14:20:51.416Z,10.15
2022-11-27T14:23:51.574Z,11.63
2022-11-27T14:26:22.714Z,10.70
2022-11-27T14:28:55.462Z,11.40
2022-11-27T14:31:25.676Z,15.50
2022-11-27T14:36:38.735Z,13.10
2022-11-27T14:39:05.215Z,11.95
2022-11-27T14:41:31.954Z,11.60
2022-11-27T14:44:02.094Z,14.50
2022-11-27T14:46:30.477Z,13.07
2022-11-27T14:48:57.202Z,9.63
2022-11-27T14:51:29.635Z,12.68
2022-11-27T14:54:11.629Z,14.18
2022-11-27T14:56:42.045Z,10.40
2022-11-27T14:59:20.010Z,13.98
2022-11-27T15:01:59.355Z,15.68
2022-11-27T15:04:28.564Z,14.18
2022-11-27T15:06:57.690Z,12.70
2022-11-27T15:09:32.405Z,15.30
2022-11-27T15:12:15.192Z,12.13
2022-11-27T15:14:47.114Z,14.93
2022-11-27T15:17:23.773Z,15.90
2022-11-27T15:19:50.375Z,16.95
2022-11-27T15:22:18.540Z,15.60
2022-11-27T15:24:45.093Z,17.35
2022-11-27T15:27:14.594Z,20.33
2022-11-27T15:29:58.684Z,19.92
2022-11-27T15:32:27.492Z,22.52
2022-11-27T15:34:54.622Z,21.15
2022-11-27T15:37:34.282Z,20.60
2022-11-27T15:40:01.852Z,20.92
2022-11-27T15:42:28.697Z,21.27
2022-11-27T15:44:57.222Z,18.45
2022-11-27T15:47:37.619Z,21.55
2022-11-27T15:50:05.676Z,27.10
2022-11-27T15:52:33.045Z,27.63
2022-11-27T15:54:59.489Z,27.50
2022-11-27T15:57:26.350Z,29.98
2022-11-27T15:59:52.771Z,23.23
2022-11-27T16:02:19.231Z,25.33
2022-11-27T16:04:45.686Z,24.63
2022-11-27T16:07:12.196Z,28.15
2022-11-27T16:09:39.769Z,32.83
2022-11-27T16:12:06.804Z,32.45
2022-11-27T16:14:33.510Z,43.25
2022-11-27T16:17:01.320Z,35.95
2022-11-27T16:19:27.867Z,35.10
2022-11-27T16:21:54.738Z,36.05
2022-11-27T16:24:21.386Z,36.08
2022-11-27T16:26:47.835Z,41.80
2022-11-27T16:29:14.410Z,42.17
2022-11-27T16:31:41.055Z,43.05
2022-11-27T16:34:07.658Z,46.05
2022-11-27T16:36:34.220Z,56.10
2022-11-27T16:39:00.740Z,58.83
2022-11-27T16:41:27.385Z,52.05
2022-11-27T16:43:56.153Z,49.25
2022-11-27T16:46:27.981Z,36.33
2022-11-27T16:48:56.178Z,25.70
2022-11-27T16:51:25.480Z,25.00
2022-11-27T16:53:54.741Z,16.95
2022-11-27T16:56:24.052Z,22.88
2022-11-27T16:58:51.312Z,21.10
2022-11-27T17:01:25.767Z,20.58
2022-11-27T17:03:52.758Z,21.33
2022-11-27T17:06:29.506Z,23.63
2022-11-27T17:08:57.692Z,26.75
2022-11-27T17:11:26.177Z,32.25
2022-11-27T17:13:55.952Z,29.45
2022-11-27T17:16:22.985Z,45.88
2022-11-27T17:18:49.501Z,45.42
2022-11-27T17:21:19.111Z,42.72
2022-11-27T17:23:46.806Z,42.92
2022-11-27T17:26:16.265Z,37.72
2022-11-27T17:28:42.784Z,66.38
2022-11-27T17:31:15.573Z,66.03
2022-11-27T17:33:42.383Z,42.80
2022-11-27T17:36:09.527Z,34.97
2022-11-27T17:38:36.246Z,45.80
2022-11-27T17:41:08.570Z,46.60
2022-11-27T17:43:36.468Z,35.88
2022-11-27T17:46:08.376Z,34.03
2022-11-27T17:48:35.374Z,37.70
2022-11-27T17:51:02.110Z,27.77
2022-11-27T17:53:28.611Z,29.80
2022-11-27T17:55:57.958Z,36.40
2022-11-27T17:58:24.400Z,39.40
2022-11-27T18:00:50.855Z,48.63
2022-11-27T18:03:17.378Z,52.75
2022-11-27T18:05:43.876Z,57.50
2022-11-27T18:08:10.283Z,63.65
2022-11-27T18:10:36.768Z,67.57
2022-11-27T18:13:03.317Z,63.85
2022-11-27T18:15:29.751Z,61.35
2022-11-27T18:17:56.202Z,66.50
2022-11-27T18:20:22.644Z,65.05
2022-11-27T18:22:49.088Z,63.67
2022-11-27T18:25:15.517Z,62.00
2022-11-27T18:27:42.448Z,113.63
2022-11-27T18:30:09.458Z,81.97
2022-11-27T18:32:39.255Z,139.73
2022-11-27T18:35:06.751Z,69.15
2022-11-27T18:37:34.962Z,62.17
2022-11-27T18:40:01.716Z,40.80
2022-11-27T18:42:30.256Z,31.67
2022-11-27T18:44:56.744Z,28.95
2022-11-27T18:47:23.337Z,30.25
2022-11-27T18:49:49.972Z,28.50
2022-11-27T18:52:16.729Z,37.97
2022-11-27T18:54:44.125Z,33.08
2022-11-27T18:57:11.207Z,53.72
2022-11-27T18:59:38.305Z,60.22
2022-11-27T19:02:05.432Z,58.70
2022-11-27T19:04:35.576Z,56.10
2022-11-27T19:07:01.988Z,60.10
2022-11-27T19:09:28.507Z,81.53
2022-11-27T19:11:54.980Z,103.93
2022-11-27T19:14:21.578Z,109.32
2022-11-27T19:16:48.597Z,95.05
2022-11-27T19:22:06.137Z,68.28
2022-11-27T19:24:32.659Z,61.60
2022-11-27T19:26:59.283Z,59.00
2022-11-27T19:29:25.802Z,57.45
2022-11-27T19:31:55.009Z,64.18
2022-11-27T19:34:21.445Z,60.95
2022-11-27T19:36:48.101Z,54.30
2022-11-27T19:39:15.674Z,52.47
2022-11-27T19:41:43.320Z,49.03
2022-11-27T19:44:12.058Z,45.90
2022-11-27T19:46:39.127Z,40.83
2022-11-27T19:49:08.564Z,44.42
2022-11-27T19:51:37.763Z,50.38
2022-11-27T19:54:09.954Z,40.83
2022-11-27T19:56:38.741Z,42.95
2022-11-27T19:59:05.882Z,44.40
2022-11-27T20:01:32.858Z,38.08
2022-11-27T20:03:59.925Z,37.28
2022-11-27T20:06:27.094Z,54.40
2022-11-27T20:09:00.938Z,38.15
2022-11-27T20:11:34.082Z,32.60
2022-11-27T20:14:01.544Z,33.78
2022-11-27T20:16:28.094Z,29.15
2022-11-27T20:18:55.148Z,27.35
2022-11-27T20:21:24.091Z,34.72
2022-11-27T20:23:52.277Z,32.33
2022-11-27T20:26:22.159Z,37.42
2022-11-27T20:28:50.128Z,36.00
2022-11-27T20:31:19.718Z,28.40
2022-11-27T20:33:46.339Z,31.70
2022-11-27T20:36:14.462Z,30.33
2022-11-27T20:38:41.051Z,30.50
2022-11-27T20:41:08.899Z,29.25
2022-11-27T20:43:35.870Z,30.10
2022-11-27T20:46:03.163Z,29.98
2022-11-27T20:48:30.256Z,41.17
2022-11-27T20:50:56.976Z,30.70
2022-11-27T20:53:23.416Z,34.15
2022-11-27T20:55:49.859Z,37.40
2022-11-27T20:58:16.354Z,40.05
2022-11-27T21:00:42.866Z,31.33
2022-11-27T21:03:09.452Z,29.15
2022-11-27T21:05:35.889Z,31.35
2022-11-27T21:08:02.402Z,29.73
2022-11-27T21:10:28.852Z,36.20
2022-11-27T21:12:55.343Z,40.25
2022-11-27T21:15:21.904Z,55.92
2022-11-27T21:17:48.334Z,55.20
2022-11-27T21:20:14.808Z,50.72
2022-11-27T21:22:43.867Z,39.35
2022-11-27T21:25:10.585Z,45.03
2022-11-27T21:27:37.511Z,33.10
2022-11-27T21:30:06.073Z,45.10
2022-11-27T21:32:32.527Z,67.68
2022-11-27T21:34:59.018Z,43.00
2022-11-27T21:37:25.531Z,41.20
2022-11-27T21:39:52.024Z,30.45
2022-11-27T21:42:18.614Z,26.38
2022-11-27T21:44:45.056Z,27.75
2022-11-27T21:47:12.060Z,27.48
2022-11-27T21:49:39.917Z,25.30
2022-11-27T21:52:07.123Z,28.25
2022-11-27T21:54:34.637Z,26.67
2022-11-27T21:57:01.382Z,24.98
2022-11-27T21:59:27.877Z,30.38
2022-11-27T22:01:57.100Z,32.78
2022-11-27T22:04:24.816Z,36.95
2022-11-27T22:06:51.423Z,40.03
2022-11-27T22:09:18.085Z,37.22
2022-11-27T22:11:45.905Z,39.30
2022-11-27T22:14:14.282Z,30.10
2022-11-27T22:16:45.365Z,37.65
2022-11-27T22:19:14.281Z,29.77
2022-11-27T22:21:41.622Z,32.70
2022-11-27T22:24:14.853Z,32.00
2022-11-27T22:26:44.649Z,32.58
2022-11-27T22:29:11.179Z,25.23
2022-11-27T22:31:37.627Z,25.73
2022-11-27T22:34:04.392Z,26.45
2022-11-27T22:36:33.306Z,53.15
2022-11-27T22:39:04.120Z,30.08
2022-11-27T22:41:32.739Z,26.60
2022-11-27T22:44:00.377Z,23.55
2022-11-27T22:46:32.626Z,33.75
2022-11-27T22:49:00.980Z,26.75
2022-11-27T22:51:32.042Z,26.38
2022-11-27T22:53:58.961Z,28.30
2022-11-27T22:56:25.917Z,27.80
2022-11-27T22:59:06.061Z,27.48
2022-11-27T23:01:40.785Z,32.33
2022-11-27T23:04:07.468Z,25.58
2022-11-27T23:06:33.899Z,25.83
2022-11-27T23:09:00.413Z,29.83
2022-11-27T23:11:28.404Z,28.65
2022-11-27T23:13:56.696Z,32.90
2022-11-27T23:16:23.825Z,31.55
2022-11-27T23:18:51.206Z,32.17
2022-11-27T23:21:20.623Z,38.72
2022-11-27T23:23:47.210Z,34.95
2022-11-27T23:26:18.336Z,33.63
2022-11-27T23:28:46.092Z,34.70
2022-11-27T23:31:29.469Z,34.40
2022-11-27T23:33:57.182Z,28.38
2022-11-27T23:36:23.674Z,29.95
2022-11-27T23:38:50.221Z,33.15
2022-11-27T23:41:22.113Z,31.73
2022-11-27T23:43:49.140Z,30.88
2022-11-27T23:46:17.889Z,26.75
2022-11-27T23:48:45.245Z,40.53
2022-11-27T23:51:14.539Z,43.15
2022-11-27T23:53:41.457Z,29.23
2022-11-27T23:56:14.451Z,28.60
2022-11-27T23:58:46.656Z,28.73
